Pagrindinis puslapis
METAR-TAF:

METAR-TAF

Oro uostai :

Sjenfuegosas, Kuba

platuma: 22-09N, ilguma: 080-24W, Aukštis: 39 m

Dabartinis oras

Ataskaita buvo paskelbta 1 valandą ir 18 minutes, ne 22:59 UTC
Vėjas 2 kt nuo kintamojo kryptimis
Temperatūra 26°C
Drėgmė 89%
Slėgis 1016 hPa

METAR: MUCF 142259Z AUTO VRB02KT 26/24 Q1016

Laikas: 20:17 (00:17 UTC)

Prognozė

Ataskaita buvo paskelbta 7 valandos ir 17 minutes, ne 17:00 UTC
Prognozė galioja nuo 14 metu 18 UTC su 15 metu 06 UTC
Vėjas 7 kt iš Rytų
Matomumas: 9000 m
Išsisklaidę debesys ne aukštis 2000 ft
Laikinai
nuo 14 metu 18 UTC su 14 metu 24 UTC
Vėjas 10 kt nuo kintamojo kryptimis
Matomumas: 4000 m
Išsisklaidę debesys ne aukštis 2000 ft, Liūtiniai kamuoliniai debesys.
Su prošvaistėmis ne aukštis 2500 ft
perkūnija, lietus, lietus
Tapsmas
nuo 15 metu 00 UTC su 15 metu 01 UTC
Vėjas 4 kt nuo kintamojo kryptimis

TAF: MUCF 141700Z 1418/1506 08007KT 9000 SCT020 TEMPO 1418/1424 VRB10KT 4000 TSRA RA SCT020CB BKN025 BECMG 1500/1501 VRB04KT

Orai ataskaitas ir orų prognozės (METAR, TAF).

turimą stotys yra geltonos ir raudonos taškus žemėlapyje.

Perkelti pele per norėdami pamatyti stoties vardą.

Tada spustelėkite, norėdami matyti oro stebėjimo ir prognozės.

Norėdami pakeisti žemėlapį: spustelėkite ant žalios mygtukų su juodo kryžiaus žemyn,; žalią mygtuką su brūkšneliu, jei norite nutolinti; arba žalių rodyklių gretimoms žemėlapius.


METAR-TAF: